This is the latest recevied weather packets stored in our database for station/object E24CR-1. If no packets are shown the sender has not sent any weather packets the latest 1 day(s).
| Time | Temp. | Humidity | Pressure | Rain* | Wind** | Luminosity | Snow |
|---|---|---|---|---|---|---|---|
| 1778055070 | 36.67° C | 34% | 948 hPa | - | - | 0 W/m² | - |
| 1778053820 | 36.11° C | 35% | 948 hPa | - | - | 0 W/m² | - |
| 1778053196 | 36.67° C | 35% | 948 hPa | - | - | 0 W/m² | - |
| 1778052572 | 38.33° C | 33% | 948 hPa | - | - | 0 W/m² | - |
| 1778051948 | 38.33° C | 32% | 949 hPa | - | - | 0 W/m² | - |
| 1778051323 | 38.89° C | 33% | 949 hPa | - | - | 0 W/m² | - |
| 1778050699 | 40° C | 31% | 949 hPa | - | - | 0 W/m² | - |
| 1778049450 | 38.89° C | 33% | 950 hPa | - | - | 0 W/m² | - |
| 1778048202 | 37.78° C | 35% | 950 hPa | - | - | 0 W/m² | - |
| 1778047578 | 37.22° C | 35% | 951 hPa | - | - | 0 W/m² | - |
| 1778045076 | 37.78° C | 36% | 951 hPa | - | - | 0 W/m² | - |
| 1778044451 | 38.33° C | 36% | 951 hPa | - | - | 0 W/m² | - |
| 1778043826 | 36.67° C | 41% | 951 hPa | - | - | 0 W/m² | - |
| 1778043199 | 36.67° C | 41% | 952 hPa | - | - | 0 W/m² | - |
| 1778042575 | 36.67° C | 40% | 952 hPa | - | - | 0 W/m² | - |
| 1778041951 | 36.67° C | 42% | 952 hPa | - | - | 0 W/m² | - |
| 1778041327 | 37.22° C | 42% | 952 hPa | - | - | 0 W/m² | - |
| 1778040703 | 36.11° C | 43% | 952 hPa | - | - | 0 W/m² | - |
| 1778040078 | 34.44° C | 46% | 952 hPa | - | - | 0 W/m² | - |
| 1778039455 | 35.56° C | 45% | 952 hPa | - | - | 0 W/m² | - |
| 1778038830 | 35.56° C | 43% | 952 hPa | - | - | 0 W/m² | - |
| 1778037582 | 33.33° C | 50% | 953 hPa | - | - | 0 W/m² | - |
| 1778036958 | 33.89° C | 48% | 953 hPa | - | - | 0 W/m² | - |
| 1778036334 | 32.78° C | 50% | 953 hPa | - | - | 0 W/m² | - |
| 1778035709 | 32.78° C | 50% | 953 hPa | - | - | 0 W/m² | - |
* Rain since midnight (hover to see other rain measurements)
** Current wind speed in m/s (hover to see current wind gust speed)